Time,TemperatureF,DewpointF,PressureIn,WindDirection,WindDirectionDegrees,WindSpeedMPH,WindSpeedGustMPH,Humidity,HourlyPrecipIn,Conditions,Clouds,dailyrainin,SoftwareType,DateUTC
2013-10-05 00:00:00,82.0,76.0,30.01,ESE,120,16.0,17.0,81,-99.99,,,-99.99,,2013-10-05 05:00:00,
2013-10-05 00:43:00,82.0,76.0,30.01,ESE,120,16.0,17.0,81,-99.99,,,-99.99,,2013-10-05 05:43:00,
2013-10-05 00:52:00,82.0,76.0,30.01,ESE,120,16.0,17.0,81,-99.99,,,-99.99,,2013-10-05 05:52:00,
2013-10-05 01:00:00,81.0,75.0,30.00,ESE,120,15.0,16.0,82,-99.99,,,-99.99,,2013-10-05 06:00:00,
2013-10-05 01:42:00,81.0,75.0,30.00,ESE,120,15.0,16.0,82,-99.99,,,-99.99,,2013-10-05 06:42:00,
2013-10-05 01:52:00,81.0,75.0,30.00,ESE,120,15.0,16.0,82,-99.99,,,-99.99,,2013-10-05 06:52:00,
2013-10-05 02:00:00,81.0,76.0,29.99,ESE,110,13.0,14.0,83,-99.99,,,-99.99,,2013-10-05 07:00:00,
2013-10-05 02:42:00,81.0,76.0,29.99,ESE,110,13.0,14.0,83,-99.99,,,-99.99,,2013-10-05 07:42:00,
2013-10-05 02:52:00,81.0,76.0,29.99,ESE,110,13.0,14.0,83,-99.99,,,-99.99,,2013-10-05 07:52:00,
2013-10-05 03:00:00,81.0,75.0,29.98,ESE,120,15.0,16.0,81,-99.99,,,-99.99,,2013-10-05 08:00:00,
2013-10-05 03:42:00,81.0,75.0,29.98,ESE,120,15.0,16.0,81,-99.99,,,-99.99,,2013-10-05 08:42:00,
2013-10-05 03:52:00,81.0,75.0,29.98,ESE,120,15.0,16.0,81,-99.99,,,-99.99,,2013-10-05 08:52:00,
2013-10-05 04:00:00,81.0,75.0,29.98,SE,130,16.0,18.0,80,-99.99,,,-99.99,,2013-10-05 09:00:00,
2013-10-05 04:43:00,81.0,75.0,29.98,SE,130,16.0,18.0,80,-99.99,,,-99.99,,2013-10-05 09:43:00,
2013-10-05 04:54:00,81.0,75.0,29.98,SE,130,16.0,18.0,80,-99.99,,,-99.99,,2013-10-05 09:54:00,
2013-10-05 05:00:00,81.0,75.0,29.98,ESE,120,15.0,17.0,80,-99.99,,,-99.99,,2013-10-05 10:00:00,
2013-10-05 05:43:00,81.0,75.0,29.98,ESE,120,15.0,17.0,80,-99.99,,,-99.99,,2013-10-05 10:43:00,
2013-10-05 05:53:00,81.0,75.0,29.98,ESE,120,15.0,17.0,80,-99.99,,,-99.99,,2013-10-05 10:53:00,
2013-10-05 06:00:00,81.0,75.0,29.99,ESE,110,13.0,14.0,82,-99.99,,,-99.99,,2013-10-05 11:00:00,
2013-10-05 06:42:00,81.0,75.0,29.99,ESE,110,13.0,14.0,82,-99.99,,,-99.99,,2013-10-05 11:42:00,
2013-10-05 06:52:00,81.0,75.0,29.99,ESE,110,13.0,14.0,82,-99.99,,,-99.99,,2013-10-05 11:52:00,
2013-10-05 07:00:00,81.0,76.0,30.00,East,100,11.0,13.0,84,-99.99,,,-99.99,,2013-10-05 12:00:00,
2013-10-05 07:42:00,81.0,76.0,30.00,East,100,11.0,13.0,84,-99.99,,,-99.99,,2013-10-05 12:42:00,
2013-10-05 07:52:00,81.0,76.0,30.00,East,100,11.0,13.0,84,-99.99,,,-99.99,,2013-10-05 12:52:00,
2013-10-05 08:00:00,81.0,76.0,30.01,East,100,14.0,15.0,83,-99.99,,,-99.99,,2013-10-05 13:00:00,
2013-10-05 08:42:00,81.0,76.0,30.01,East,100,14.0,15.0,83,-99.99,,,-99.99,,2013-10-05 13:42:00,
2013-10-05 08:52:00,81.0,76.0,30.01,East,100,14.0,15.0,83,-99.99,,,-99.99,,2013-10-05 13:52:00,
2013-10-05 09:00:00,82.0,74.0,30.02,ESE,120,18.0,21.0,76,-99.99,,,-99.99,,2013-10-05 14:00:00,
2013-10-05 09:42:00,82.0,74.0,30.02,ESE,120,18.0,21.0,76,-99.99,,,-99.99,,2013-10-05 14:42:00,
2013-10-05 09:52:00,82.0,74.0,30.02,ESE,120,18.0,21.0,76,-99.99,,,-99.99,,2013-10-05 14:52:00,
2013-10-05 10:00:00,81.0,74.0,30.03,ESE,120,18.0,20.0,79,-99.99,,,-99.99,,2013-10-05 15:00:00,
2013-10-05 10:44:00,81.0,74.0,30.03,ESE,120,18.0,20.0,79,-99.99,,,-99.99,,2013-10-05 15:44:00,
2013-10-05 10:53:00,81.0,74.0,30.03,ESE,120,18.0,20.0,79,-99.99,,,-99.99,,2013-10-05 15:53:00,
2013-10-05 11:00:00,82.0,74.0,30.02,SE,130,17.0,20.0,78,-99.99,,,-99.99,,2013-10-05 16:00:00,
2013-10-05 11:43:00,82.0,74.0,30.02,SE,130,17.0,20.0,78,-99.99,,,-99.99,,2013-10-05 16:43:00,
2013-10-05 11:53:00,82.0,74.0,30.02,SE,130,17.0,20.0,78,-99.99,,,-99.99,,2013-10-05 16:53:00,
2013-10-05 12:00:00,82.0,73.0,30.01,ESE,120,21.0,23.0,74,-99.99,,,-99.99,,2013-10-05 17:00:00,
2013-10-05 12:42:00,82.0,73.0,30.01,ESE,120,21.0,23.0,74,-99.99,,,-99.99,,2013-10-05 17:42:00,
2013-10-05 12:52:00,82.0,73.0,30.01,ESE,120,21.0,23.0,74,-99.99,,,-99.99,,2013-10-05 17:52:00,
2013-10-05 13:00:00,81.0,74.0,29.99,SE,140,13.0,14.0,80,-99.99,,,-99.99,,2013-10-05 18:00:00,
2013-10-05 13:42:00,81.0,74.0,29.99,SE,140,13.0,14.0,80,-99.99,,,-99.99,,2013-10-05 18:42:00,
2013-10-05 13:52:00,81.0,74.0,29.99,SE,140,13.0,14.0,80,-99.99,,,-99.99,,2013-10-05 18:52:00,
2013-10-05 14:00:00,81.0,72.0,29.98,ESE,110,20.0,21.0,74,-99.99,,,-99.99,,2013-10-05 19:00:00,
2013-10-05 14:42:00,81.0,72.0,29.98,ESE,110,20.0,21.0,74,-99.99,,,-99.99,,2013-10-05 19:42:00,
2013-10-05 14:52:00,81.0,72.0,29.98,ESE,110,20.0,21.0,74,-99.99,,,-99.99,,2013-10-05 19:52:00,
2013-10-05 15:00:00,79.0,72.0,29.96,East,90,14.0,15.0,80,-99.99,,,-99.99,,2013-10-05 20:00:00,
2013-10-05 15:42:00,79.0,72.0,29.96,East,90,14.0,15.0,80,-99.99,,,-99.99,,2013-10-05 20:42:00,
2013-10-05 15:52:00,79.0,72.0,29.96,East,90,14.0,15.0,80,-99.99,,,-99.99,,2013-10-05 20:52:00,
2013-10-05 16:00:00,82.0,74.0,29.95,ESE,120,16.0,20.0,77,-99.99,,,-99.99,,2013-10-05 21:00:00,
2013-10-05 16:43:00,82.0,74.0,29.95,ESE,120,16.0,20.0,77,-99.99,,,-99.99,,2013-10-05 21:43:00,
2013-10-05 16:54:00,82.0,74.0,29.95,ESE,120,16.0,20.0,77,-99.99,,,-99.99,,2013-10-05 21:54:00,
2013-10-05 17:00:00,82.0,74.0,29.94,SE,130,17.0,20.0,76,-99.99,,,-99.99,,2013-10-05 22:00:00,
2013-10-05 17:42:00,82.0,74.0,29.94,SE,130,17.0,20.0,76,-99.99,,,-99.99,,2013-10-05 22:42:00,
2013-10-05 17:53:00,82.0,74.0,29.94,SE,130,17.0,20.0,76,-99.99,,,-99.99,,2013-10-05 22:53:00,
2013-10-05 18:00:00,82.0,74.0,29.94,SE,130,17.0,18.0,75,-99.99,,,-99.99,,2013-10-05 23:00:00,
2013-10-05 18:42:00,82.0,74.0,29.94,SE,130,17.0,18.0,75,-99.99,,,-99.99,,2013-10-05 23:42:00,
2013-10-05 18:53:00,82.0,74.0,29.94,SE,130,17.0,18.0,75,-99.99,,,-99.99,,2013-10-05 23:53:00,
2013-10-05 19:00:00,81.0,72.0,29.94,SSE,150,14.0,16.0,74,-99.99,,,-99.99,,2013-10-06 00:00:00,
2013-10-05 19:43:00,81.0,72.0,29.94,SSE,150,14.0,16.0,74,-99.99,,,-99.99,,2013-10-06 00:43:00,
2013-10-05 19:52:00,81.0,72.0,29.94,SSE,150,14.0,16.0,74,-99.99,,,-99.99,,2013-10-06 00:52:00,
2013-10-05 20:00:00,80.0,74.0,29.95,South,170,14.0,16.0,82,-99.99,,,-99.99,,2013-10-06 01:00:00,
2013-10-05 20:42:00,80.0,74.0,29.95,South,170,14.0,16.0,82,-99.99,,,-99.99,,2013-10-06 01:42:00,
2013-10-05 20:52:00,80.0,74.0,29.95,South,170,14.0,16.0,82,-99.99,,,-99.99,,2013-10-06 01:52:00,
2013-10-05 21:00:00,81.0,72.0,29.94,SSE,160,17.0,18.0,74,-99.99,,,-99.99,,2013-10-06 02:00:00,
2013-10-05 21:42:00,81.0,72.0,29.94,SSE,160,17.0,18.0,74,-99.99,,,-99.99,,2013-10-06 02:42:00,
2013-10-05 21:52:00,81.0,72.0,29.94,SSE,160,17.0,18.0,74,-99.99,,,-99.99,,2013-10-06 02:52:00,
2013-10-05 22:00:00,-999.0,-99.9,-100.00,SE,140,15.0,-999.0,-999,-99.99,,,-99.99,,2013-10-06 03:00:00,
2013-10-05 22:44:00,81.0,73.0,29.95,SE,140,15.0,16.0,78,-99.99,,,-99.99,,2013-10-06 03:44:00,
2013-10-05 22:54:00,81.0,73.0,29.95,SE,140,15.0,16.0,78,-99.99,,,-99.99,,2013-10-06 03:54:00,
2013-10-05 23:00:00,81.0,72.0,29.95,SSE,150,16.0,17.0,73,-99.99,,,-99.99,,2013-10-06 04:00:00,
2013-10-05 23:43:00,81.0,72.0,29.95,SSE,150,16.0,17.0,73,-99.99,,,-99.99,,2013-10-06 04:43:00,
2013-10-05 23:54:00,81.0,72.0,29.95,SSE,150,16.0,17.0,73,-99.99,,,-99.99,,2013-10-06 04:54:00,